Time;durP1;ratioP1;P1;durP2;ratioP2;P2;SDS_P1;SDS_P2;PMS_P1;PMS_P2;Temp;Humidity;BMP_temperature;BMP_pressure;BME280_temperature;BME280_humidity;BME280_pressure;Samples;Min_cycle;Max_cycle;Signal;HPM_P1;HPM_P2
2023/05/17 00:00:16;;;;;;;24.60;4.00;;;;;;;;;;5056187;28;20040;-78
2023/05/17 00:02:42;;;;;;;20.83;3.92;;;;;;;;;;5057900;28;20040;-77
2023/05/17 00:05:10;;;;;;;29.10;4.03;;;;;;;;;;5040323;28;21077;-78
2023/05/17 00:07:36;;;;;;;20.92;3.97;;;;;;;;;;5056109;28;20088;-78
2023/05/17 00:10:02;;;;;;;23.15;4.13;;;;;;;;;;5057070;28;20040;-77
2023/05/17 00:12:28;;;;;;;21.67;3.72;;;;;;;;;;5039144;28;20602;-77
2023/05/17 00:14:55;;;;;;;22.63;3.78;;;;;;;;;;5060326;28;20093;-77
2023/05/17 00:17:21;;;;;;;23.00;3.35;;;;;;;;;;5064065;28;20051;-77
2023/05/17 00:19:47;;;;;;;20.25;3.10;;;;;;;;;;5060777;28;20044;-78
2023/05/17 00:22:13;;;;;;;20.08;3.50;;;;;;;;;;5061525;28;20127;-77
2023/05/17 00:24:39;;;;;;;19.63;3.53;;;;;;;;;;5054706;28;20405;-77
2023/05/17 00:27:05;;;;;;;18.20;2.95;;;;;;;;;;5053878;28;20044;-77
2023/05/17 00:29:31;;;;;;;17.33;3.20;;;;;;;;;;5057294;28;20166;-76
2023/05/17 00:31:57;;;;;;;19.50;3.15;;;;;;;;;;5036479;28;20040;-77
2023/05/17 00:34:23;;;;;;;22.52;4.15;;;;;;;;;;5051592;28;20041;-77
2023/05/17 00:36:49;;;;;;;18.95;3.38;;;;;;;;;;5051213;28;20620;-77
2023/05/17 00:39:15;;;;;;;21.85;3.60;;;;;;;;;;5015375;28;20707;-76
2023/05/17 00:41:42;;;;;;;18.45;3.20;;;;;;;;;;5051735;28;20056;-77
2023/05/17 00:44:08;;;;;;;20.67;3.08;;;;;;;;;;5054981;28;20120;-77
2023/05/17 00:46:34;;;;;;;15.13;3.67;;;;;;;;;;5053676;28;20052;-76
2023/05/17 00:49:00;;;;;;;20.38;3.20;;;;;;;;;;5049803;28;20062;-76
2023/05/17 00:51:27;;;;;;;21.58;3.10;;;;;;;;;;5048900;28;20053;-76
2023/05/17 00:53:54;;;;;;;15.05;2.80;;;;;;;;;;5037679;28;20059;-76
2023/05/17 00:56:20;;;;;;;18.27;3.67;;;;;;;;;;5049785;28;20071;-77
2023/05/17 00:58:46;;;;;;;17.63;3.30;;;;;;;;;;5051715;28;20048;-78
2023/05/17 01:01:12;;;;;;;14.85;2.55;;;;;;;;;;5046463;28;20048;-76
2023/05/17 01:03:38;;;;;;;14.50;2.50;;;;;;;;;;5044039;28;20126;-76
2023/05/17 01:06:05;;;;;;;14.18;2.63;;;;;;;;;;5047367;28;20047;-76
2023/05/17 01:08:32;;;;;;;13.80;2.97;;;;;;;;;;5043137;28;20059;-76
2023/05/17 01:11:07;;;;;;;17.42;3.15;;;;;;;;;;5045585;28;20489;-77
2023/05/17 01:13:44;;;;;;;20.42;2.70;;;;;;;;;;5049434;28;20545;-77
2023/05/17 01:16:15;;;;;;;15.95;2.90;;;;;;;;;;5052637;28;20086;-77
2023/05/17 01:18:45;;;;;;;14.77;2.70;;;;;;;;;;5051328;28;20085;-76
2023/05/17 01:21:29;;;;;;;23.92;3.38;;;;;;;;;;5051107;28;20048;-77
2023/05/17 01:23:55;;;;;;;;;;;;;;;;;;5069821;28;20044;-77
2023/05/17 01:26:42;;;;;;;18.92;3.15;;;;;;;;;;5051619;28;20892;-77
2023/05/17 01:29:09;;;;;;;21.42;2.85;;;;;;;;;;5075196;28;20051;-77
2023/05/17 01:31:38;;;;;;;16.05;3.00;;;;;;;;;;5075777;28;20079;-76
2023/05/17 01:34:08;;;;;;;14.90;2.78;;;;;;;;;;5070393;28;20204;-77
2023/05/17 01:36:34;;;;;;;20.48;2.70;;;;;;;;;;5064750;28;20055;-76
2023/05/17 01:39:01;;;;;;;18.90;3.13;;;;;;;;;;5056773;28;20040;-76
2023/05/17 01:41:27;;;;;;;17.65;2.78;;;;;;;;;;5051867;28;20052;-77
2023/05/17 01:43:53;;;;;;;15.52;2.88;;;;;;;;;;5033781;28;20156;-77
2023/05/17 01:46:35;;;;;;;17.27;2.50;;;;;;;;;;5052863;28;20051;-77
2023/05/17 01:49:21;;;;;;;17.55;2.58;;;;;;;;;;5049783;28;20846;-77
2023/05/17 01:51:49;;;;;;;11.85;2.65;;;;;;;;;;5052905;28;20044;-77
2023/05/17 01:54:20;;;;;;;14.25;2.60;;;;;;;;;;5065386;28;20174;-77
2023/05/17 01:56:48;;;;;;;22.67;2.50;;;;;;;;;;5049893;28;20393;-77
2023/05/17 01:59:20;;;;;;;13.57;2.17;;;;;;;;;;5051228;28;22171;-76
2023/05/17 02:01:47;;;;;;;10.70;2.10;;;;;;;;;;5056925;28;20076;-77
2023/05/17 02:04:14;;;;;;;17.15;2.50;;;;;;;;;;5037211;28;20102;-77
2023/05/17 02:06:40;;;;;;;10.65;1.95;;;;;;;;;;5054534;28;20051;-77
2023/05/17 02:09:06;;;;;;;14.95;2.40;;;;;;;;;;5073182;28;20508;-77
2023/05/17 02:11:32;;;;;;;19.27;2.47;;;;;;;;;;5061755;28;20051;-76
2023/05/17 02:13:58;;;;;;;15.10;2.60;;;;;;;;;;5063788;28;20045;-77
2023/05/17 02:16:24;;;;;;;12.35;1.90;;;;;;;;;;5081720;28;20040;-77
2023/05/17 02:18:50;;;;;;;16.83;2.63;;;;;;;;;;5067688;28;20113;-76
2023/05/17 02:21:17;;;;;;;14.13;2.42;;;;;;;;;;5063878;28;20039;-76
2023/05/17 02:23:43;;;;;;;22.25;2.90;;;;;;;;;;5043085;28;20045;-77
2023/05/17 02:26:09;;;;;;;15.65;2.75;;;;;;;;;;5079534;28;20048;-76
2023/05/17 02:28:35;;;;;;;18.50;2.33;;;;;;;;;;5062223;28;20040;-76
2023/05/17 02:31:01;;;;;;;15.70;2.30;;;;;;;;;;5045368;28;20133;-77
2023/05/17 02:33:27;;;;;;;11.13;2.10;;;;;;;;;;5056013;28;20159;-76
2023/05/17 02:35:54;;;;;;;9.65;1.67;;;;;;;;;;5056659;28;20086;-77
2023/05/17 02:38:20;;;;;;;9.68;1.80;;;;;;;;;;5056398;28;20064;-77
2023/05/17 02:40:46;;;;;;;8.70;1.90;;;;;;;;;;5051578;28;20134;-77
2023/05/17 02:43:12;;;;;;;9.55;1.95;;;;;;;;;;5057438;28;20052;-76
2023/05/17 02:45:38;;;;;;;15.73;2.25;;;;;;;;;;5051372;28;20047;-77
2023/05/17 02:48:04;;;;;;;13.93;3.30;;;;;;;;;;5058434;28;20044;-77
2023/05/17 02:50:30;;;;;;;13.93;1.90;;;;;;;;;;5058313;28;20047;-76
2023/05/17 02:52:57;;;;;;;12.15;1.80;;;;;;;;;;5053296;28;20496;-77
2023/05/17 02:55:23;;;;;;;13.65;1.98;;;;;;;;;;5051229;28;20904;-77
2023/05/17 02:57:49;;;;;;;10.95;1.90;;;;;;;;;;5043431;28;20094;-77
2023/05/17 03:00:15;;;;;;;14.25;2.33;;;;;;;;;;5054275;28;20375;-77
2023/05/17 03:02:41;;;;;;;10.32;1.40;;;;;;;;;;5050658;28;20072;-77
2023/05/17 03:05:07;;;;;;;11.25;1.95;;;;;;;;;;5050296;28;20044;-77
2023/05/17 03:07:34;;;;;;;10.55;2.15;;;;;;;;;;5067541;28;20094;-77
2023/05/17 03:10:00;;;;;;;17.40;2.00;;;;;;;;;;5068364;28;20052;-77
2023/05/17 03:12:26;;;;;;;11.63;1.83;;;;;;;;;;5055982;28;20086;-76
2023/05/17 03:14:52;;;;;;;10.40;1.90;;;;;;;;;;5051459;28;20506;-78
2023/05/17 03:17:18;;;;;;;12.07;1.75;;;;;;;;;;5055041;28;20139;-77
2023/05/17 03:19:44;;;;;;;15.82;2.45;;;;;;;;;;5053507;28;20044;-77
2023/05/17 03:22:10;;;;;;;13.10;2.15;;;;;;;;;;5052249;28;20036;-77
2023/05/17 03:24:36;;;;;;;9.82;2.10;;;;;;;;;;5071569;28;20051;-77
2023/05/17 03:27:02;;;;;;;13.25;2.20;;;;;;;;;;5036428;28;20036;-76
2023/05/17 03:29:28;;;;;;;17.35;1.90;;;;;;;;;;5052983;28;20075;-77
2023/05/17 03:31:54;;;;;;;19.63;1.92;;;;;;;;;;5051963;28;20664;-76
2023/05/17 03:34:21;;;;;;;11.80;1.60;;;;;;;;;;5060081;28;20040;-78
2023/05/17 03:36:47;;;;;;;11.20;1.75;;;;;;;;;;5062297;28;20064;-77
2023/05/17 03:39:13;;;;;;;10.07;1.80;;;;;;;;;;5063631;28;20080;-77
2023/05/17 03:41:40;;;;;;;12.88;2.22;;;;;;;;;;5069152;28;20058;-77
2023/05/17 03:44:07;;;;;;;15.85;2.22;;;;;;;;;;5057330;28;20048;-77
2023/05/17 03:46:33;;;;;;;14.10;2.05;;;;;;;;;;5069909;28;20053;-76
2023/05/17 03:48:59;;;;;;;12.88;1.75;;;;;;;;;;5071893;28;20066;-77
2023/05/17 03:51:25;;;;;;;17.55;1.80;;;;;;;;;;5062348;28;21300;-77
2023/05/17 03:53:59;;;;;;;9.77;1.92;;;;;;;;;;5058326;28;20052;-77
2023/05/17 03:56:25;;;;;;;10.63;2.03;;;;;;;;;;5055983;28;20141;-77
2023/05/17 03:58:51;;;;;;;11.73;1.85;;;;;;;;;;5055415;28;20098;-77
2023/05/17 04:01:19;;;;;;;13.35;2.63;;;;;;;;;;5071244;28;20044;-78
2023/05/17 04:03:45;;;;;;;9.07;2.03;;;;;;;;;;5061142;28;20066;-77
2023/05/17 04:06:12;;;;;;;15.88;2.15;;;;;;;;;;5058900;28;20413;-77
2023/05/17 04:08:38;;;;;;;9.10;1.80;;;;;;;;;;5056391;28;20048;-77
2023/05/17 04:11:12;;;;;;;11.68;1.77;;;;;;;;;;5053118;28;20048;-77
2023/05/17 04:13:42;;;;;;;7.75;1.50;;;;;;;;;;5055680;28;20051;-77
2023/05/17 04:16:08;;;;;;;12.00;1.90;;;;;;;;;;5060725;28;20536;-78
2023/05/17 04:18:35;;;;;;;14.48;1.70;;;;;;;;;;5057099;28;20041;-77
2023/05/17 04:21:02;;;;;;;10.07;1.88;;;;;;;;;;5054419;28;20048;-78
2023/05/17 04:23:28;;;;;;;13.73;2.00;;;;;;;;;;5056403;28;20071;-78
2023/05/17 04:25:55;;;;;;;12.38;2.40;;;;;;;;;;5070991;28;20760;-78
2023/05/17 04:28:21;;;;;;;12.77;1.92;;;;;;;;;;5055474;28;20165;-78
2023/05/17 04:30:48;;;;;;;9.60;1.73;;;;;;;;;;5039734;28;20037;-78
2023/05/17 04:33:14;;;;;;;12.60;1.95;;;;;;;;;;5060697;28;20044;-78
2023/05/17 04:35:41;;;;;;;16.92;2.72;;;;;;;;;;5034934;28;20956;-77
2023/05/17 04:38:08;;;;;;;13.50;2.25;;;;;;;;;;5050857;28;20914;-77
2023/05/17 04:40:36;;;;;;;18.52;2.83;;;;;;;;;;5057742;28;20121;-77
2023/05/17 04:43:02;;;;;;;17.17;2.85;;;;;;;;;;5054793;28;20056;-77
2023/05/17 04:45:28;;;;;;;18.15;2.53;;;;;;;;;;5070485;28;20052;-76
2023/05/17 04:47:54;;;;;;;19.50;2.90;;;;;;;;;;5057790;28;20044;-77
2023/05/17 04:50:21;;;;;;;11.02;2.20;;;;;;;;;;5040176;28;20040;-77
2023/05/17 04:52:47;;;;;;;15.77;2.58;;;;;;;;;;5053785;28;20770;-77
2023/05/17 04:55:13;;;;;;;11.65;2.47;;;;;;;;;;5052416;28;20081;-77
2023/05/17 04:57:39;;;;;;;15.02;2.97;;;;;;;;;;5051773;28;20097;-78
2023/05/17 05:00:06;;;;;;;15.60;2.20;;;;;;;;;;5054843;28;20075;-77
2023/05/17 05:02:32;;;;;;;11.85;2.20;;;;;;;;;;5055033;28;20121;-77
2023/05/17 05:04:58;;;;;;;16.33;2.35;;;;;;;;;;5072263;28;20047;-77
2023/05/17 05:07:24;;;;;;;15.68;3.28;;;;;;;;;;5065587;28;20040;-75
2023/05/17 05:09:50;;;;;;;15.82;2.65;;;;;;;;;;5073366;28;20135;-75
2023/05/17 05:12:17;;;;;;;13.52;2.03;;;;;;;;;;5051560;28;20060;-74
2023/05/17 05:14:44;;;;;;;15.48;2.92;;;;;;;;;;5054656;28;20047;-74
2023/05/17 05:17:10;;;;;;;16.10;2.35;;;;;;;;;;5057910;28;20571;-74
2023/05/17 05:19:36;;;;;;;17.27;2.63;;;;;;;;;;5061392;28;20131;-74
2023/05/17 05:22:02;;;;;;;12.70;2.25;;;;;;;;;;5059964;28;20040;-74
2023/05/17 05:24:28;;;;;;;11.13;2.28;;;;;;;;;;5057389;28;20044;-74
2023/05/17 05:26:54;;;;;;;13.20;2.28;;;;;;;;;;5059110;28;20044;-74
2023/05/17 05:29:20;;;;;;;14.60;2.72;;;;;;;;;;5075125;28;20036;-74
2023/05/17 05:31:46;;;;;;;11.85;2.15;;;;;;;;;;5058452;28;20051;-73
2023/05/17 05:34:12;;;;;;;17.75;2.42;;;;;;;;;;5058115;28;20048;-74
2023/05/17 05:36:38;;;;;;;20.75;2.80;;;;;;;;;;5056661;28;20680;-74
2023/05/17 05:39:05;;;;;;;22.25;5.32;;;;;;;;;;5056025;28;20048;-74
2023/05/17 05:41:31;;;;;;;16.73;2.55;;;;;;;;;;5055635;28;20114;-75
2023/05/17 05:43:57;;;;;;;9.07;2.67;;;;;;;;;;5053949;28;20044;-75
2023/05/17 05:46:24;;;;;;;22.48;2.30;;;;;;;;;;5057841;28;20531;-75
2023/05/17 05:48:50;;;;;;;13.57;3.00;;;;;;;;;;5055409;28;20052;-75
2023/05/17 05:51:18;;;;;;;16.52;2.80;;;;;;;;;;5054517;28;20186;-76
2023/05/17 05:53:44;;;;;;;15.38;2.85;;;;;;;;;;5056442;28;20128;-75
2023/05/17 05:56:10;;;;;;;12.63;2.50;;;;;;;;;;5053854;28;20165;-75
2023/05/17 05:58:36;;;;;;;19.35;3.17;;;;;;;;;;5053980;28;20039;-75
2023/05/17 06:01:03;;;;;;;36.92;3.90;;;;;;;;;;5055676;28;20048;-76
2023/05/17 06:03:29;;;;;;;20.02;3.13;;;;;;;;;;5055243;28;20048;-76
2023/05/17 06:05:55;;;;;;;21.40;4.15;;;;;;;;;;5053623;28;20124;-76
2023/05/17 06:08:21;;;;;;;20.77;3.10;;;;;;;;;;5055687;28;20408;-75
2023/05/17 06:10:47;;;;;;;15.15;2.90;;;;;;;;;;5057494;28;20040;-75
2023/05/17 06:13:13;;;;;;;22.67;3.25;;;;;;;;;;5056823;28;20115;-78
2023/05/17 06:15:40;;;;;;;13.05;2.80;;;;;;;;;;5071345;28;22156;-74
2023/05/17 06:18:06;;;;;;;17.55;2.28;;;;;;;;;;5057501;28;20045;-74
2023/05/17 06:20:32;;;;;;;14.65;2.67;;;;;;;;;;5055030;28;20093;-74
2023/05/17 06:22:58;;;;;;;12.68;2.40;;;;;;;;;;5058918;28;20075;-74
2023/05/17 06:25:24;;;;;;;16.23;2.70;;;;;;;;;;5056779;28;20040;-74
2023/05/17 06:27:50;;;;;;;16.27;2.88;;;;;;;;;;5057675;28;20135;-76
2023/05/17 06:30:16;;;;;;;10.38;1.83;;;;;;;;;;5057019;28;20044;-75
2023/05/17 06:32:42;;;;;;;13.77;3.03;;;;;;;;;;5057654;28;20044;-68
2023/05/17 06:35:09;;;;;;;17.05;2.30;;;;;;;;;;5057431;28;20055;-68
2023/05/17 06:37:35;;;;;;;13.95;3.08;;;;;;;;;;5055372;28;20654;-68
2023/05/17 06:40:06;;;;;;;16.23;2.08;;;;;;;;;;5056848;28;20127;-69
2023/05/17 06:42:32;;;;;;;14.38;2.08;;;;;;;;;;5039331;28;20077;-69
2023/05/17 06:44:58;;;;;;;16.83;2.70;;;;;;;;;;5056002;28;20472;-68
2023/05/17 06:47:24;;;;;;;18.15;2.25;;;;;;;;;;5056373;28;20117;-68
2023/05/17 06:49:50;;;;;;;7.15;2.03;;;;;;;;;;5058377;28;20067;-68
2023/05/17 06:52:17;;;;;;;9.25;2.30;;;;;;;;;;5058580;28;20048;-68
2023/05/17 06:54:43;;;;;;;17.05;2.40;;;;;;;;;;5074644;28;20490;-69
2023/05/17 06:57:09;;;;;;;11.18;2.28;;;;;;;;;;5059331;28;20560;-69
2023/05/17 06:59:36;;;;;;;14.77;2.72;;;;;;;;;;5058806;28;20052;-69
2023/05/17 07:02:02;;;;;;;16.13;2.38;;;;;;;;;;5059918;28;20151;-69
2023/05/17 07:04:28;;;;;;;16.60;2.13;;;;;;;;;;5077582;28;20044;-69
2023/05/17 07:06:54;;;;;;;8.85;2.00;;;;;;;;;;5058365;28;20389;-68
2023/05/17 07:09:20;;;;;;;10.82;2.35;;;;;;;;;;5059743;28;20036;-69
2023/05/17 07:11:47;;;;;;;13.60;2.30;;;;;;;;;;5058354;28;20048;-69
2023/05/17 07:14:13;;;;;;;6.85;1.48;;;;;;;;;;5062052;28;20037;-77
2023/05/17 07:16:39;;;;;;;11.20;2.00;;;;;;;;;;5056931;28;20143;-75
2023/05/17 07:19:05;;;;;;;13.40;1.98;;;;;;;;;;5057275;28;20123;-75
2023/05/17 07:21:32;;;;;;;14.75;2.90;;;;;;;;;;5059521;28;20055;-75
2023/05/17 07:23:59;;;;;;;11.73;1.90;;;;;;;;;;5058370;28;20044;-75
2023/05/17 07:26:25;;;;;;;14.60;3.38;;;;;;;;;;5059905;28;20040;-75
2023/05/17 07:28:51;;;;;;;12.77;2.38;;;;;;;;;;5056314;28;20048;-75
2023/05/17 07:31:17;;;;;;;15.00;2.42;;;;;;;;;;5058404;28;20052;-75
2023/05/17 07:33:43;;;;;;;13.82;2.47;;;;;;;;;;5058985;28;20040;-75
2023/05/17 07:36:09;;;;;;;15.02;2.03;;;;;;;;;;5073248;28;20048;-74
2023/05/17 07:38:35;;;;;;;14.35;2.95;;;;;;;;;;5073810;28;20157;-75
2023/05/17 07:41:02;;;;;;;17.85;2.85;;;;;;;;;;5057537;28;20155;-74
2023/05/17 07:43:28;;;;;;;15.20;2.33;;;;;;;;;;5041513;28;20044;-74
2023/05/17 07:45:54;;;;;;;9.95;2.10;;;;;;;;;;5055599;28;20052;-74
2023/05/17 07:48:20;;;;;;;11.60;2.67;;;;;;;;;;5056917;28;20687;-74
2023/05/17 07:50:47;;;;;;;13.32;2.30;;;;;;;;;;5055465;28;20140;-74
2023/05/17 07:53:13;;;;;;;11.32;2.25;;;;;;;;;;5058680;28;20060;-74
2023/05/17 07:55:40;;;;;;;13.30;2.22;;;;;;;;;;5058369;28;20056;-75
2023/05/17 07:58:06;;;;;;;11.25;2.13;;;;;;;;;;5058630;28;20518;-75
2023/05/17 08:00:32;;;;;;;9.20;2.05;;;;;;;;;;5056950;28;20128;-74
2023/05/17 08:02:58;;;;;;;8.70;1.40;;;;;;;;;;5056736;28;20628;-74
2023/05/17 08:05:24;;;;;;;14.98;2.42;;;;;;;;;;5057835;28;20759;-75
2023/05/17 08:07:51;;;;;;;12.63;2.60;;;;;;;;;;5058115;28;20043;-74
2023/05/17 08:10:17;;;;;;;11.35;2.15;;;;;;;;;;5074323;28;20036;-74
2023/05/17 08:12:43;;;;;;;9.82;2.13;;;;;;;;;;5054438;28;20039;-75
2023/05/17 08:15:09;;;;;;;13.05;2.63;;;;;;;;;;5053900;28;20666;-74
2023/05/17 08:17:35;;;;;;;15.50;2.42;;;;;;;;;;5056249;28;20046;-75
2023/05/17 08:20:01;;;;;;;10.98;2.70;;;;;;;;;;5056227;28;20056;-74
2023/05/17 08:22:28;;;;;;;11.88;2.17;;;;;;;;;;5057552;28;20040;-75
2023/05/17 08:24:54;;;;;;;12.57;2.13;;;;;;;;;;5076113;28;20276;-75
2023/05/17 08:27:20;;;;;;;9.05;1.80;;;;;;;;;;5074002;28;21708;-75
2023/05/17 08:29:46;;;;;;;12.25;1.80;;;;;;;;;;5058533;28;20112;-74
2023/05/17 08:32:12;;;;;;;15.60;1.95;;;;;;;;;;5042119;28;20055;-75
2023/05/17 08:34:38;;;;;;;10.82;1.98;;;;;;;;;;5054442;28;20480;-74
2023/05/17 08:37:04;;;;;;;10.07;1.65;;;;;;;;;;5074898;28;20052;-74
2023/05/17 08:39:31;;;;;;;15.38;2.22;;;;;;;;;;5057143;28;20109;-74
2023/05/17 08:41:58;;;;;;;14.07;2.38;;;;;;;;;;5059411;28;20050;-75
2023/05/17 08:44:25;;;;;;;9.18;1.90;;;;;;;;;;5062699;28;20051;-74
2023/05/17 08:46:52;;;;;;;8.20;2.25;;;;;;;;;;5069252;28;20147;-74
2023/05/17 08:49:25;;;;;;;11.88;2.17;;;;;;;;;;5059093;28;20113;-77
2023/05/17 08:51:52;;;;;;;13.05;2.13;;;;;;;;;;5058191;28;20052;-76
2023/05/17 08:54:19;;;;;;;8.55;1.80;;;;;;;;;;5056533;28;20052;-76
2023/05/17 08:56:46;;;;;;;7.60;1.98;;;;;;;;;;5058115;28;20720;-76
2023/05/17 08:59:12;;;;;;;6.10;1.58;;;;;;;;;;5056978;28;20052;-76
2023/05/17 09:01:43;;;;;;;8.98;2.05;;;;;;;;;;5057388;28;20036;-76
2023/05/17 09:04:09;;;;;;;9.98;1.98;;;;;;;;;;5055598;28;20044;-76
2023/05/17 09:06:36;;;;;;;11.68;2.03;;;;;;;;;;5026583;28;20127;-76
2023/05/17 09:09:06;;;;;;;13.40;1.77;;;;;;;;;;5056574;28;20069;-76
2023/05/17 09:11:32;;;;;;;13.63;1.83;;;;;;;;;;5057286;28;20603;-77
2023/05/17 09:14:03;;;;;;;15.27;2.80;;;;;;;;;;5057700;28;20043;-78
2023/05/17 09:16:33;;;;;;;10.85;2.25;;;;;;;;;;5057266;28;20648;-78
2023/05/17 09:19:00;;;;;;;8.48;1.58;;;;;;;;;;5056260;28;20161;-78
2023/05/17 09:21:27;;;;;;;8.25;1.58;;;;;;;;;;5055329;28;20074;-78
2023/05/17 09:23:54;;;;;;;10.93;1.95;;;;;;;;;;5058852;28;20113;-79
2023/05/17 09:26:23;;;;;;;7.63;1.27;;;;;;;;;;5040788;28;20048;-78
2023/05/17 09:28:49;;;;;;;9.77;1.88;;;;;;;;;;5042740;28;20592;-78
2023/05/17 09:31:16;;;;;;;8.07;2.40;;;;;;;;;;5056138;28;20052;-78
2023/05/17 09:33:43;;;;;;;13.05;2.58;;;;;;;;;;5056861;28;20451;-79
2023/05/17 09:36:20;;;;;;;4.07;1.33;;;;;;;;;;5056686;28;21762;-78
2023/05/17 09:38:58;;;;;;;9.75;1.63;;;;;;;;;;5055920;28;20277;-78
2023/05/17 09:41:31;;;;;;;6.57;1.90;;;;;;;;;;5023162;28;20290;-78
2023/05/17 09:43:57;;;;;;;11.20;2.53;;;;;;;;;;5039796;28;20040;-79
2023/05/17 09:46:24;;;;;;;7.78;1.58;;;;;;;;;;5057052;28;20163;-78
2023/05/17 09:48:54;;;;;;;9.93;2.22;;;;;;;;;;5045443;28;20055;-80
2023/05/17 09:51:31;;;;;;;11.50;2.17;;;;;;;;;;5060082;28;20063;-79
2023/05/17 09:53:57;;;;;;;6.63;2.00;;;;;;;;;;5059314;28;21955;-80
2023/05/17 09:56:27;;;;;;;9.43;1.75;;;;;;;;;;5047211;28;20121;-80
2023/05/17 09:58:53;;;;;;;13.15;2.47;;;;;;;;;;5057777;28;20471;-80
2023/05/17 10:01:20;;;;;;;13.13;1.90;;;;;;;;;;5040653;28;20898;-79
2023/05/17 10:03:46;;;;;;;11.48;1.83;;;;;;;;;;5040087;28;20052;-79
2023/05/17 10:06:14;;;;;;;13.02;1.90;;;;;;;;;;5057857;28;20082;-81
2023/05/17 10:08:43;;;;;;;9.93;2.17;;;;;;;;;;5055937;28;20125;-80
2023/05/17 10:11:10;;;;;;;14.50;2.03;;;;;;;;;;5053689;28;20121;-79
2023/05/17 10:13:58;;;;;;;11.82;1.98;;;;;;;;;;5052554;28;20052;-79
2023/05/17 10:16:25;;;;;;;15.73;2.47;;;;;;;;;;5057786;28;20097;-79
2023/05/17 10:18:52;;;;;;;11.23;2.33;;;;;;;;;;5055852;28;20058;-80
2023/05/17 10:21:18;;;;;;;21.10;3.28;;;;;;;;;;5054476;28;20051;-79
2023/05/17 10:23:45;;;;;;;10.80;2.20;;;;;;;;;;5056348;28;20526;-79
2023/05/17 10:26:12;;;;;;;11.85;1.98;;;;;;;;;;5054693;28;20131;-79
2023/05/17 10:28:38;;;;;;;12.35;2.92;;;;;;;;;;5055376;28;20059;-79
2023/05/17 10:31:05;;;;;;;7.68;1.75;;;;;;;;;;5059604;28;20090;-79
2023/05/17 10:33:32;;;;;;;7.40;1.75;;;;;;;;;;5060136;28;20047;-79
2023/05/17 10:35:58;;;;;;;5.68;1.25;;;;;;;;;;5047348;28;20053;-80
2023/05/17 10:38:26;;;;;;;7.82;1.63;;;;;;;;;;5061357;28;20095;-79
2023/05/17 10:40:53;;;;;;;7.28;1.88;;;;;;;;;;5058612;28;20052;-79
2023/05/17 10:43:20;;;;;;;8.00;1.73;;;;;;;;;;5059819;28;20041;-79
2023/05/17 10:45:46;;;;;;;8.65;1.65;;;;;;;;;;5058874;28;20055;-79
2023/05/17 10:48:14;;;;;;;6.10;1.98;;;;;;;;;;5058501;28;20056;-79
2023/05/17 10:50:41;;;;;;;10.32;1.48;;;;;;;;;;5061896;28;20298;-79
2023/05/17 10:53:10;;;;;;;5.88;1.75;;;;;;;;;;5061404;28;20709;-79
2023/05/17 10:55:40;;;;;;;15.20;1.92;;;;;;;;;;5059185;28;20088;-79
2023/05/17 10:58:10;;;;;;;12.88;1.77;;;;;;;;;;5042998;28;20040;-79
2023/05/17 11:00:53;;;;;;;10.55;2.25;;;;;;;;;;5057713;28;20392;-79
2023/05/17 11:03:19;;;;;;;11.63;2.45;;;;;;;;;;5057280;28;20048;-79
2023/05/17 11:06:05;;;;;;;12.10;2.75;;;;;;;;;;5062394;28;20040;-79
2023/05/17 11:08:32;;;;;;;7.22;2.22;;;;;;;;;;5043670;28;20044;-79
2023/05/17 11:11:12;;;;;;;11.57;2.40;;;;;;;;;;5050587;28;20143;-79
2023/05/17 11:13:55;;;;;;;16.35;2.15;;;;;;;;;;5060725;28;20165;-79
2023/05/17 11:16:23;;;;;;;11.43;2.28;;;;;;;;;;5057399;28;20045;-79
2023/05/17 11:18:53;;;;;;;18.80;2.17;;;;;;;;;;5043072;28;20135;-79
2023/05/17 11:21:21;;;;;;;8.88;2.20;;;;;;;;;;5058258;28;20534;-79
2023/05/17 11:23:48;;;;;;;13.50;2.05;;;;;;;;;;5058607;28;20044;-78
2023/05/17 11:26:22;;;;;;;16.20;2.45;;;;;;;;;;5056622;28;20049;-79
2023/05/17 11:28:48;;;;;;;8.90;2.03;;;;;;;;;;5056243;28;20358;-77
2023/05/17 11:31:14;;;;;;;14.07;3.35;;;;;;;;;;5059460;28;20121;-77
2023/05/17 11:33:44;;;;;;;9.38;2.15;;;;;;;;;;5058950;28;20068;-77
2023/05/17 11:36:29;;;;;;;13.07;2.72;;;;;;;;;;5057293;28;20189;-76
2023/05/17 11:39:12;;;;;;;7.65;2.00;;;;;;;;;;5074202;28;20052;-75
2023/05/17 11:41:41;;;;;;;10.23;2.17;;;;;;;;;;5055006;28;20506;-76
2023/05/17 11:44:08;;;;;;;17.35;2.25;;;;;;;;;;5042381;28;20040;-76
2023/05/17 11:46:35;;;;;;;9.50;1.90;;;;;;;;;;5040603;28;20101;-76
2023/05/17 11:49:01;;;;;;;9.02;1.98;;;;;;;;;;5058682;28;20479;-77
2023/05/17 11:51:27;;;;;;;10.75;1.95;;;;;;;;;;5058902;28;20088;-76
2023/05/17 11:53:54;;;;;;;8.32;2.28;;;;;;;;;;5058161;28;20048;-76
2023/05/17 11:56:21;;;;;;;10.35;1.73;;;;;;;;;;5041944;28;20045;-76
2023/05/17 11:58:50;;;;;;;10.88;1.95;;;;;;;;;;5057486;28;21686;-78
2023/05/17 12:01:16;;;;;;;8.95;2.10;;;;;;;;;;5058214;28;20044;-77
2023/05/17 12:03:42;;;;;;;17.10;3.15;;;;;;;;;;5040581;28;20059;-76
2023/05/17 12:06:12;;;;;;;9.05;2.00;;;;;;;;;;5061318;28;20048;-77
2023/05/17 12:08:39;;;;;;;10.52;2.30;;;;;;;;;;5058058;28;20044;-77
2023/05/17 12:11:06;;;;;;;7.97;2.28;;;;;;;;;;5057157;28;20044;-76
2023/05/17 12:13:33;;;;;;;14.77;3.28;;;;;;;;;;5054686;28;20097;-77
2023/05/17 12:16:04;;;;;;;16.83;2.70;;;;;;;;;;5058559;28;20067;-77
2023/05/17 12:18:40;;;;;;;7.93;2.13;;;;;;;;;;5056383;28;20098;-76
2023/05/17 12:21:07;;;;;;;10.57;2.28;;;;;;;;;;5055724;28;20067;-76
2023/05/17 12:23:36;;;;;;;7.13;2.13;;;;;;;;;;5055910;28;20094;-76
2023/05/17 12:26:13;;;;;;;16.23;2.08;;;;;;;;;;5056531;28;20044;-77
2023/05/17 12:28:40;;;;;;;11.38;2.03;;;;;;;;;;5059247;28;20534;-77
2023/05/17 12:31:08;;;;;;;11.38;2.47;;;;;;;;;;5048201;28;20097;-77
2023/05/17 12:33:35;;;;;;;12.50;2.20;;;;;;;;;;5058560;28;20040;-77
2023/05/17 12:36:02;;;;;;;8.73;2.30;;;;;;;;;;5057324;28;20606;-76
2023/05/17 12:38:31;;;;;;;12.13;2.63;;;;;;;;;;5055466;28;20044;-77
2023/05/17 12:41:02;;;;;;;11.70;2.20;;;;;;;;;;5057228;28;20052;-76
2023/05/17 12:43:30;;;;;;;12.60;2.08;;;;;;;;;;5056084;28;20127;-76
2023/05/17 12:46:17;;;;;;;12.40;2.05;;;;;;;;;;5057899;28;20052;-76
2023/05/17 12:48:44;;;;;;;12.13;1.80;;;;;;;;;;5057324;28;20134;-76
2023/05/17 12:51:14;;;;;;;16.02;2.38;;;;;;;;;;5058425;28;21089;-76
2023/05/17 12:53:43;;;;;;;8.65;2.47;;;;;;;;;;5056156;28;20056;-76
2023/05/17 12:56:14;;;;;;;10.13;2.33;;;;;;;;;;5059376;28;20291;-77
2023/05/17 12:58:40;;;;;;;10.45;2.28;;;;;;;;;;5058095;28;20079;-76
2023/05/17 13:01:09;;;;;;;11.88;2.08;;;;;;;;;;5059625;28;20110;-76
2023/05/17 13:03:35;;;;;;;14.48;2.03;;;;;;;;;;5040337;28;20045;-75
2023/05/17 13:06:02;;;;;;;9.90;2.08;;;;;;;;;;5055584;28;20095;-76
2023/05/17 13:08:29;;;;;;;8.07;1.73;;;;;;;;;;5040512;28;20495;-76
2023/05/17 13:11:05;;;;;;;12.60;1.90;;;;;;;;;;5056255;28;20063;-77
2023/05/17 13:13:34;;;;;;;12.45;2.38;;;;;;;;;;5058224;28;20097;-75
2023/05/17 13:16:00;;;;;;;7.35;2.15;;;;;;;;;;5057093;28;20045;-76
2023/05/17 13:18:27;;;;;;;8.93;1.83;;;;;;;;;;5056680;28;20036;-76
2023/05/17 13:20:53;;;;;;;8.73;1.83;;;;;;;;;;5059894;28;20052;-76
2023/05/17 13:23:19;;;;;;;7.65;1.73;;;;;;;;;;5054226;28;20125;-76
2023/05/17 13:25:46;;;;;;;13.68;1.90;;;;;;;;;;5057858;28;20048;-76
2023/05/17 13:28:12;;;;;;;8.60;1.98;;;;;;;;;;5059381;28;20087;-77
2023/05/17 13:30:38;;;;;;;10.25;1.65;;;;;;;;;;5074723;28;20119;-77
2023/05/17 13:33:04;;;;;;;10.23;1.67;;;;;;;;;;5066045;28;20093;-76
2023/05/17 13:35:30;;;;;;;6.25;1.92;;;;;;;;;;5074063;28;20044;-77
2023/05/17 13:37:56;;;;;;;9.73;2.47;;;;;;;;;;5065425;28;20044;-77
2023/05/17 13:40:22;;;;;;;9.75;1.92;;;;;;;;;;5059939;28;20616;-77
2023/05/17 13:42:48;;;;;;;9.20;1.50;;;;;;;;;;5059635;28;20079;-77
2023/05/17 13:45:15;;;;;;;10.20;2.13;;;;;;;;;;5056056;28;20048;-83
2023/05/17 13:47:41;;;;;;;8.10;2.20;;;;;;;;;;5034885;28;20050;-80
2023/05/17 13:50:09;;;;;;;11.88;1.70;;;;;;;;;;5058841;28;20652;-83
2023/05/17 13:52:35;;;;;;;10.75;2.00;;;;;;;;;;5059318;28;20040;-83
2023/05/17 13:55:01;;;;;;;8.95;1.90;;;;;;;;;;5042850;28;20749;-83
2023/05/17 13:57:28;;;;;;;8.25;1.65;;;;;;;;;;5029652;28;20119;-81
2023/05/17 13:59:55;;;;;;;7.28;1.48;;;;;;;;;;5042322;28;20040;-82
2023/05/17 14:02:22;;;;;;;10.70;1.90;;;;;;;;;;5049322;28;20400;-81
2023/05/17 14:04:48;;;;;;;8.65;2.05;;;;;;;;;;5044752;28;20165;-82
2023/05/17 14:07:14;;;;;;;10.02;1.75;;;;;;;;;;5046424;28;20055;-81
2023/05/17 14:09:41;;;;;;;11.75;2.10;;;;;;;;;;5047301;28;20045;-84
2023/05/17 14:12:07;;;;;;;9.15;1.92;;;;;;;;;;5038319;28;20040;-82
2023/05/17 14:14:36;;;;;;;7.03;2.17;;;;;;;;;;5044313;28;20063;-82
2023/05/17 14:17:04;;;;;;;9.65;1.98;;;;;;;;;;5042158;28;20405;-82
2023/05/17 14:19:30;;;;;;;7.80;1.50;;;;;;;;;;5065440;28;20079;-81
2023/05/17 14:21:56;;;;;;;10.30;2.03;;;;;;;;;;5058655;28;21868;-83
2023/05/17 14:24:22;;;;;;;6.85;1.80;;;;;;;;;;5042793;28;20334;-82
2023/05/17 14:26:48;;;;;;;8.25;1.60;;;;;;;;;;5058182;28;20044;-81
2023/05/17 14:29:15;;;;;;;8.82;1.70;;;;;;;;;;5052075;28;20051;-81
2023/05/17 14:31:45;;;;;;;8.38;1.60;;;;;;;;;;5048418;28;20171;-81
2023/05/17 14:34:12;;;;;;;5.20;1.50;;;;;;;;;;5035825;28;20382;-81